createdAt,value
2022-09-10T00:02:55.289Z,4.78
2022-09-10T00:06:12.092Z,4.32
2022-09-10T00:09:01.385Z,3.88
2022-09-10T00:11:16.942Z,4.13
2022-09-10T00:13:46.030Z,3.65
2022-09-10T00:16:44.781Z,4.20
2022-09-10T00:19:18.256Z,3.40
2022-09-10T00:21:50.748Z,3.10
2022-09-10T00:24:20.558Z,3.53
2022-09-10T00:29:28.268Z,3.65
2022-09-10T00:31:58.819Z,3.67
2022-09-10T00:37:13.141Z,3.87
2022-09-10T00:39:41.771Z,3.45
2022-09-10T00:42:12.125Z,3.33
2022-09-10T00:47:40.828Z,3.25
2022-09-10T00:50:44.641Z,3.80
2022-09-10T00:56:46.336Z,3.78
2022-09-10T00:59:58.189Z,4.97
2022-09-10T01:03:25.380Z,4.10
2022-09-10T01:06:02.336Z,4.20
2022-09-10T01:12:26.435Z,4.90
2022-09-10T01:15:29.445Z,3.55
2022-09-10T01:18:36.156Z,4.32
2022-09-10T01:21:26.393Z,4.30
2022-09-10T01:30:45.699Z,4.70
2022-09-10T01:33:41.577Z,4.78
2022-09-10T01:36:25.584Z,4.97
2022-09-10T01:38:58.234Z,4.93
2022-09-10T01:41:59.551Z,6.05
2022-09-10T01:48:07.837Z,5.97
2022-09-10T01:51:08.910Z,5.60
2022-09-10T01:53:42.638Z,6.60
2022-09-10T01:57:24.129Z,6.90
2022-09-10T01:59:47.298Z,6.78
2022-09-10T02:02:23.931Z,7.47
2022-09-10T02:04:53.394Z,7.60
2022-09-10T02:07:36.906Z,7.68
2022-09-10T02:10:11.230Z,7.88
2022-09-10T02:12:39.996Z,7.45
2022-09-10T02:15:23.396Z,7.03
2022-09-10T02:17:53.648Z,6.90
2022-09-10T02:20:26.303Z,7.95
2022-09-10T02:23:05.764Z,8.05
2022-09-10T02:25:41.868Z,8.18
2022-09-10T02:28:13.060Z,8.15
2022-09-10T02:30:41.888Z,9.00
2022-09-10T02:33:11.122Z,8.82
2022-09-10T02:35:44.723Z,8.88
2022-09-10T02:38:58.534Z,9.55
2022-09-10T02:41:08.108Z,9.82
2022-09-10T02:43:37.058Z,9.27
2022-09-10T02:46:12.215Z,9.52
2022-09-10T02:48:45.512Z,9.57
2022-09-10T02:51:28.678Z,10.38
2022-09-10T02:53:59.180Z,10.00
2022-09-10T02:56:29.020Z,9.70
2022-09-10T02:58:57.739Z,11.77
2022-09-10T03:01:26.539Z,9.60
2022-09-10T03:03:58.454Z,9.27
2022-09-10T03:06:30.896Z,10.35
2022-09-10T03:11:46.126Z,10.43
2022-09-10T03:14:19.084Z,10.13
2022-09-10T03:17:00.965Z,10.63
2022-09-10T03:19:33.643Z,11.50
2022-09-10T03:24:54.641Z,10.35
2022-09-10T03:27:32.194Z,10.73
2022-09-10T03:30:09.090Z,10.70
2022-09-10T03:32:38.611Z,10.63
2022-09-10T03:35:29.579Z,11.00
2022-09-10T03:37:57.148Z,10.90
2022-09-10T03:40:29.732Z,11.60
2022-09-10T03:42:56.301Z,11.00
2022-09-10T03:45:25.109Z,10.43
2022-09-10T03:47:52.842Z,11.23
2022-09-10T03:50:23.204Z,11.02
2022-09-10T03:52:52.301Z,11.48
2022-09-10T03:55:58.123Z,10.75
2022-09-10T03:58:39.040Z,11.48
2022-09-10T04:01:10.523Z,11.03
2022-09-10T04:03:40.335Z,11.40
2022-09-10T04:06:19.999Z,11.93
2022-09-10T04:08:52.261Z,11.40
2022-09-10T04:11:24.878Z,12.20
2022-09-10T04:16:44.146Z,11.95
2022-09-10T04:19:13.202Z,10.52
2022-09-10T04:21:39.619Z,10.10
2022-09-10T04:24:14.685Z,11.90
2022-09-10T04:26:41.184Z,10.93
2022-09-10T04:29:32.641Z,11.68
2022-09-10T04:32:26.985Z,11.68
2022-09-10T04:35:20.508Z,12.60
2022-09-10T04:37:51.678Z,10.65
2022-09-10T04:40:25.184Z,9.57
2022-09-10T04:42:51.817Z,9.52
2022-09-10T04:45:33.904Z,10.63
2022-09-10T04:48:13.147Z,9.68
2022-09-10T04:51:16.143Z,10.43
2022-09-10T04:53:47.818Z,11.43
2022-09-10T04:56:19.854Z,10.98
2022-09-10T04:58:50.479Z,9.50
2022-09-10T05:01:28.912Z,9.95
2022-09-10T05:03:55.844Z,11.20
2022-09-10T05:06:24.545Z,10.23
2022-09-10T05:08:51.010Z,10.75
2022-09-10T05:11:19.693Z,10.73
2022-09-10T05:13:46.480Z,10.07
2022-09-10T05:16:20.695Z,10.55
2022-09-10T05:18:49.806Z,10.70
2022-09-10T05:21:18.397Z,9.73
2022-09-10T05:23:45.327Z,10.65
2022-09-10T05:26:12.391Z,11.45
2022-09-10T05:28:38.882Z,11.05
2022-09-10T05:31:09.828Z,11.37
2022-09-10T05:33:43.291Z,10.45
2022-09-10T05:36:12.386Z,10.70
2022-09-10T05:38:42.655Z,10.90
2022-09-10T05:41:15.080Z,10.18
2022-09-10T05:43:42.103Z,10.07
2022-09-10T05:46:15.198Z,11.18
2022-09-10T05:48:47.864Z,9.93
2022-09-10T05:51:14.701Z,10.40
2022-09-10T05:53:43.940Z,9.73
2022-09-10T05:56:11.704Z,10.13
2022-09-10T05:58:38.555Z,9.77
2022-09-10T06:01:05.481Z,10.48
2022-09-10T06:03:35.000Z,9.13
2022-09-10T06:06:04.012Z,9.02
2022-09-10T06:08:38.939Z,9.83
2022-09-10T06:11:09.859Z,9.43
2022-09-10T06:13:43.619Z,9.13
2022-09-10T06:16:17.240Z,8.52
2022-09-10T06:18:53.897Z,8.52
2022-09-10T06:21:22.273Z,8.40
2022-09-10T06:23:57.265Z,8.15
2022-09-10T06:26:26.312Z,8.48
2022-09-10T06:28:55.061Z,8.15
2022-09-10T06:31:25.802Z,9.23
2022-09-10T06:33:53.067Z,9.43
2022-09-10T06:36:24.248Z,9.35
2022-09-10T06:38:51.803Z,10.15
2022-09-10T06:41:25.285Z,9.35
2022-09-10T06:43:52.816Z,9.88
2022-09-10T06:47:02.856Z,10.33
2022-09-10T06:49:10.959Z,10.15
2022-09-10T06:51:38.402Z,10.93
2022-09-10T06:54:08.249Z,10.63
2022-09-10T06:56:35.373Z,10.68
2022-09-10T06:59:02.704Z,10.70
2022-09-10T07:04:59.806Z,10.38
2022-09-10T07:07:27.262Z,11.18
2022-09-10T07:09:58.041Z,11.27
2022-09-10T07:12:31.884Z,11.23
2022-09-10T07:15:02.218Z,11.48
2022-09-10T07:17:32.110Z,11.82
2022-09-10T07:20:05.468Z,11.57
2022-09-10T07:22:38.407Z,12.43
2022-09-10T07:25:21.374Z,10.57
2022-09-10T07:28:18.801Z,11.45
2022-09-10T07:30:52.058Z,11.73
2022-09-10T07:33:27.690Z,11.88
2022-09-10T07:36:09.055Z,10.30
2022-09-10T07:38:39.852Z,10.77
2022-09-10T07:41:13.100Z,11.50
2022-09-10T07:43:54.553Z,11.50
2022-09-10T07:46:30.811Z,11.00
2022-09-10T07:49:00.936Z,11.57
2022-09-10T07:51:44.879Z,11.37
2022-09-10T07:54:11.471Z,11.07
2022-09-10T07:56:39.772Z,11.18
2022-09-10T07:59:11.552Z,10.63
2022-09-10T08:01:40.774Z,10.10
2022-09-10T08:04:07.780Z,9.90
2022-09-10T08:06:34.491Z,9.10
2022-09-10T08:09:01.111Z,9.55
2022-09-10T08:11:27.559Z,10.38
2022-09-10T08:13:54.103Z,10.35
2022-09-10T08:16:23.254Z,9.77
2022-09-10T08:18:51.534Z,9.80
2022-09-10T08:21:19.816Z,9.10
2022-09-10T08:23:51.935Z,9.85
2022-09-10T08:26:18.963Z,8.65
2022-09-10T08:28:45.875Z,8.97
2022-09-10T08:31:15.079Z,7.50
2022-09-10T08:33:48.622Z,7.78
2022-09-10T08:36:25.290Z,7.47
2022-09-10T08:39:19.453Z,8.25
2022-09-10T08:42:33.679Z,7.67
2022-09-10T08:45:25.061Z,7.65
2022-09-10T08:51:52.898Z,7.53
2022-09-10T08:57:17.349Z,8.33
2022-09-10T09:00:15.851Z,8.18
2022-09-10T09:03:04.649Z,8.63
2022-09-10T09:05:47.510Z,8.95
2022-09-10T09:08:59.591Z,8.65
2022-09-10T09:11:38.415Z,9.07
2022-09-10T09:15:09.228Z,9.23
2022-09-10T09:28:30.413Z,8.33
2022-09-10T09:31:12.062Z,8.05
2022-09-10T09:33:50.517Z,7.78
2022-09-10T09:36:25.444Z,8.65
2022-09-10T09:38:54.691Z,8.27
2022-09-10T09:42:21.909Z,8.57
2022-09-10T09:45:08.219Z,7.93
2022-09-10T09:47:39.871Z,7.32
2022-09-10T09:50:06.963Z,7.25
2022-09-10T09:52:40.333Z,6.40
2022-09-10T09:55:34.915Z,6.50
2022-09-10T09:58:43.283Z,5.57
2022-09-10T10:01:22.946Z,5.80
2022-09-10T10:04:24.309Z,6.35
2022-09-10T10:07:47.442Z,7.60
2022-09-10T10:10:41.054Z,6.43
2022-09-10T10:13:36.802Z,6.80
2022-09-10T10:16:32.256Z,6.90
2022-09-10T10:19:50.825Z,6.07
2022-09-10T10:22:26.295Z,4.78
2022-09-10T10:24:59.119Z,4.67
2022-09-10T10:27:47.102Z,4.50
2022-09-10T10:30:21.572Z,4.00
2022-09-10T10:33:05.007Z,3.22
2022-09-10T10:35:34.454Z,3.13
2022-09-10T10:38:29.467Z,3.60
2022-09-10T10:41:32.476Z,1.83
2022-09-10T10:44:25.128Z,1.80
2022-09-10T10:47:33.283Z,2.03
2022-09-10T10:50:18.977Z,1.55
2022-09-10T10:53:49.171Z,1.90
2022-09-10T10:56:37.164Z,2.22
2022-09-10T10:59:26.237Z,3.10
2022-09-10T11:02:03.522Z,2.35
2022-09-10T11:04:56.142Z,2.05
2022-09-10T11:07:37.549Z,1.83
2022-09-10T11:10:18.730Z,1.27
2022-09-10T11:13:22.085Z,1.75
2022-09-10T11:16:07.992Z,1.95
2022-09-10T11:18:54.799Z,1.67
2022-09-10T11:21:34.557Z,1.10
2022-09-10T11:24:08.633Z,0.80
2022-09-10T11:26:49.445Z,0.95
2022-09-10T11:29:43.466Z,0.90
2022-09-10T11:32:44.165Z,1.05
2022-09-10T11:36:06.718Z,1.40
2022-09-10T11:42:27.682Z,1.38
2022-09-10T11:45:29.401Z,1.27
2022-09-10T11:48:30.708Z,0.82
2022-09-10T11:51:12.708Z,1.77
2022-09-10T11:53:42.961Z,0.70
2022-09-10T11:56:13.076Z,0.80
2022-09-10T11:59:23.330Z,0.90
2022-09-10T12:09:08.336Z,1.83
2022-09-10T12:15:59.328Z,1.10
2022-09-10T12:18:50.348Z,1.00
2022-09-10T12:21:51.663Z,0.90
2022-09-10T12:24:33.695Z,0.80
2022-09-10T12:31:29.763Z,1.23
2022-09-10T12:34:20.368Z,0.85
2022-09-10T12:36:55.152Z,0.50
2022-09-10T12:39:32.479Z,0.45
2022-09-10T12:42:28.006Z,0.40
2022-09-10T12:45:20.403Z,0.85
2022-09-10T12:48:05.346Z,0.60
2022-09-10T12:52:21.158Z,0.70
2022-09-10T12:54:04.369Z,1.10
2022-09-10T12:56:53.233Z,1.70
2022-09-10T13:08:48.916Z,1.20
2022-09-10T13:11:23.151Z,1.45
2022-09-10T13:14:06.615Z,1.45
2022-09-10T13:16:42.229Z,1.40
2022-09-10T13:19:29.023Z,1.57
2022-09-10T13:21:58.226Z,1.52
2022-09-10T13:25:13.208Z,1.30
2022-09-10T13:30:40.910Z,1.73
2022-09-10T13:40:45.361Z,1.98
2022-09-10T13:50:51.451Z,1.67
2022-09-10T13:54:31.847Z,1.98
2022-09-10T14:18:23.058Z,2.28
2022-09-10T14:28:04.861Z,2.17
2022-09-10T14:30:43.834Z,2.15
2022-09-10T14:33:51.851Z,2.65
2022-09-10T14:36:52.939Z,2.17
2022-09-10T14:39:57.969Z,2.40
2022-09-10T15:01:02.840Z,2.10
2022-09-10T15:06:50.353Z,2.65
2022-09-10T15:09:33.639Z,2.58
2022-09-10T15:15:40.269Z,2.13
2022-09-10T15:16:21.244Z,1.83
2022-09-10T15:23:06.856Z,2.42
2022-09-10T15:31:46.634Z,1.85
2022-09-10T15:34:19.859Z,1.80
2022-09-10T15:40:03.918Z,1.63
2022-09-10T15:54:04.285Z,1.02
2022-09-10T15:56:45.476Z,1.00
2022-09-10T16:04:52.078Z,0.85
2022-09-10T16:13:31.621Z,1.25
2022-09-10T16:23:17.763Z,0.77
2022-09-10T16:26:21.159Z,0.70
2022-09-10T16:35:44.052Z,1.50
2022-09-10T17:11:38.069Z,2.63
2022-09-10T17:14:51.641Z,3.23
2022-09-10T17:20:33.642Z,3.58
2022-09-10T17:23:15.027Z,3.33
2022-09-10T17:25:44.141Z,3.85
2022-09-10T17:28:20.592Z,3.60
2022-09-10T17:30:48.705Z,4.25
2022-09-10T17:36:06.634Z,4.03
2022-09-10T17:38:38.020Z,3.78
2022-09-10T17:44:14.547Z,3.78
2022-09-10T17:49:32.142Z,3.95
2022-09-10T17:52:00.742Z,3.78
2022-09-10T17:54:30.652Z,3.40
2022-09-10T17:57:00.461Z,4.10
2022-09-10T17:59:34.813Z,4.40
2022-09-10T18:04:58.700Z,4.60
2022-09-10T18:07:27.665Z,4.10
2022-09-10T18:08:29.945Z,4.28
2022-09-10T18:09:56.341Z,3.80
2022-09-10T18:12:36.910Z,3.88
2022-09-10T18:15:13.721Z,3.80
2022-09-10T18:17:42.234Z,3.35
2022-09-10T18:20:13.529Z,5.77
2022-09-10T18:22:49.461Z,3.20
2022-09-10T18:25:18.739Z,3.72
2022-09-10T18:27:54.255Z,3.83
2022-09-10T18:30:33.915Z,3.83
2022-09-10T18:33:10.385Z,4.00
2022-09-10T18:36:26.493Z,3.78
2022-09-10T18:41:51.507Z,3.70
2022-09-10T18:44:49.659Z,3.80
2022-09-10T18:47:48.272Z,3.27
2022-09-10T18:50:45.957Z,3.28
2022-09-10T18:56:38.252Z,4.03
2022-09-10T18:59:29.297Z,4.28
2022-09-10T19:05:00.752Z,5.03
2022-09-10T19:07:37.489Z,5.13
2022-09-10T19:13:18.731Z,4.47
2022-09-10T19:16:48.300Z,5.77
2022-09-10T19:18:59.747Z,5.03
2022-09-10T19:21:48.416Z,6.10
2022-09-10T19:24:37.787Z,5.03
2022-09-10T19:27:12.340Z,4.80
2022-09-10T19:29:53.177Z,4.60
2022-09-10T19:35:37.551Z,5.20
2022-09-10T19:41:08.036Z,5.28
2022-09-10T19:44:53.375Z,4.80
2022-09-10T19:47:28.760Z,4.75
2022-09-10T19:49:55.313Z,4.70
2022-09-10T19:52:48.502Z,5.68
2022-09-10T19:55:26.022Z,5.38
2022-09-10T19:58:03.330Z,5.93
2022-09-10T20:03:19.799Z,5.75
2022-09-10T20:10:05.551Z,5.05
2022-09-10T20:12:39.752Z,4.96
2022-09-10T20:15:37.345Z,5.87
2022-09-10T20:18:57.753Z,5.47
2022-09-10T20:21:45.751Z,5.65
2022-09-10T20:24:15.778Z,5.35
2022-09-10T20:26:51.531Z,5.93
2022-09-10T20:29:33.889Z,6.53
2022-09-10T20:32:07.463Z,6.30
2022-09-10T20:37:56.172Z,6.45
2022-09-10T20:47:08.712Z,6.47
2022-09-10T20:50:36.115Z,6.57
2022-09-10T20:58:05.000Z,7.18
2022-09-10T21:03:41.807Z,7.05
2022-09-10T21:06:32.265Z,7.18
2022-09-10T21:12:42.608Z,7.38
2022-09-10T21:15:43.880Z,7.50
2022-09-10T21:33:18.641Z,7.93
2022-09-10T21:42:14.090Z,7.72
2022-09-10T21:47:28.407Z,8.45
2022-09-10T21:52:47.896Z,8.05
2022-09-10T22:00:32.549Z,8.20
2022-09-10T22:05:54.076Z,8.52
2022-09-10T22:09:04.141Z,8.70
2022-09-10T22:14:45.480Z,9.50
2022-09-10T22:32:07.927Z,9.93
2022-09-10T22:46:07.512Z,9.38
2022-09-10T22:52:39.651Z,9.52
2022-09-10T22:55:27.779Z,10.48
2022-09-10T22:58:24.452Z,10.43
2022-09-10T23:02:09.659Z,10.35
2022-09-10T23:04:45.492Z,9.13
2022-09-10T23:18:24.831Z,9.18
2022-09-10T23:32:45.618Z,10.98
2022-09-10T23:35:49.263Z,10.88
2022-09-10T23:38:59.094Z,11.27
2022-09-10T23:42:14.773Z,12.38
2022-09-10T23:45:13.622Z,10.98
2022-09-10T23:48:17.530Z,10.13
2022-09-10T23:51:33.108Z,10.10
2022-09-10T23:54:48.239Z,11.20
2022-09-10T23:57:54.245Z,11.32
